Chester, Vermont
Current Conditions -  °F | °C
As of 10:54 AM on Monday 22 Dec 2014 (Local Time) from KVSF Reporting Station
Overcast Overcast  
Wind Chill: 31°   Ceiling: 4100
Heat Index: 31°   Visibility: 8mi
Dew Point: 28°   Wind: 0mph
Humidity: 89%   Direction: NA
Pressure: 30.37"   Gusts: NA
Location:  43.26°N, 72.6°W
Report Text: KVSF 221554Z AUTO 00000KT 8SM FEW021 SCT029 OVC041 M01/M02 A3037 RMK AO2 SLP292 T10061022 TSNO
Loading
Personal Weather Stations






























Interactive Weather Map New forecast layout! Learn more

10-Day Weather Forecast

Advertisements
Track Severe Weather on mobile